sensor_id;sensor_type;location;lat;lon;timestamp;noise_LAeq;noise_LA_min;noise_LA_max;noise_LA01;noise_LA95
69616;Laerm;56822;52.516;4.708;2023-09-18T00:00:00;35.59;31.88;38.65;;
69616;Laerm;56822;52.516;4.708;2023-09-18T00:00:11;34.02;31.16;37.83;;
69616;Laerm;56822;52.516;4.708;2023-09-18T00:00:22;32.23;29.70;34.55;;
69616;Laerm;56822;52.516;4.708;2023-09-18T00:00:33;30.80;29.02;32.77;;
69616;Laerm;56822;52.516;4.708;2023-09-18T00:00:48;34.37;29.37;40.91;;
69616;Laerm;56822;52.516;4.708;2023-09-18T00:01:01;37.02;30.40;47.07;;
69616;Laerm;56822;52.516;4.708;2023-09-18T00:01:12;31.55;29.49;36.49;;
69616;Laerm;56822;52.516;4.708;2023-09-18T00:01:22;31.22;29.90;32.97;;
69616;Laerm;56822;52.516;4.708;2023-09-18T00:01:32;33.26;30.29;35.32;;
69616;Laerm;56822;52.516;4.708;2023-09-18T00:01:42;33.50;31.78;35.90;;
69616;Laerm;56822;52.516;4.708;2023-09-18T00:01:53;36.70;31.55;45.00;;
69616;Laerm;56822;52.516;4.708;2023-09-18T00:02:03;42.88;37.72;48.13;;
69616;Laerm;56822;52.516;4.708;2023-09-18T00:02:13;44.19;37.78;50.72;;
69616;Laerm;56822;52.516;4.708;2023-09-18T00:02:23;41.25;38.01;44.22;;
69616;Laerm;56822;52.516;4.708;2023-09-18T00:02:34;38.40;35.17;43.65;;
69616;Laerm;56822;52.516;4.708;2023-09-18T00:02:44;40.16;36.64;43.99;;
69616;Laerm;56822;52.516;4.708;2023-09-18T00:02:55;40.50;37.40;44.64;;
69616;Laerm;56822;52.516;4.708;2023-09-18T00:03:05;40.55;37.53;44.25;;
69616;Laerm;56822;52.516;4.708;2023-09-18T00:03:16;41.20;38.09;43.90;;
69616;Laerm;56822;52.516;4.708;2023-09-18T00:03:27;40.16;35.35;44.65;;
69616;Laerm;56822;52.516;4.708;2023-09-18T00:03:38;38.01;32.29;45.82;;
69616;Laerm;56822;52.516;4.708;2023-09-18T00:03:48;40.29;36.34;46.06;;
69616;Laerm;56822;52.516;4.708;2023-09-18T00:03:58;37.90;34.51;41.18;;
69616;Laerm;56822;52.516;4.708;2023-09-18T00:04:09;38.10;34.08;43.24;;
69616;Laerm;56822;52.516;4.708;2023-09-18T00:04:19;39.95;35.35;46.25;;
69616;Laerm;56822;52.516;4.708;2023-09-18T00:04:29;34.47;31.72;37.25;;
69616;Laerm;56822;52.516;4.708;2023-09-18T00:04:40;32.74;30.89;39.74;;
69616;Laerm;56822;52.516;4.708;2023-09-18T00:04:50;33.76;31.63;36.11;;
69616;Laerm;56822;52.516;4.708;2023-09-18T00:05:00;35.47;32.51;38.80;;
69616;Laerm;56822;52.516;4.708;2023-09-18T00:05:10;36.73;34.11;39.42;;
69616;Laerm;56822;52.516;4.708;2023-09-18T00:05:21;36.75;34.24;40.19;;
69616;Laerm;56822;52.516;4.708;2023-09-18T00:05:31;39.49;36.11;44.20;;
69616;Laerm;56822;52.516;4.708;2023-09-18T00:05:41;42.86;40.24;46.32;;
69616;Laerm;56822;52.516;4.708;2023-09-18T00:05:52;43.83;41.27;46.60;;
69616;Laerm;56822;52.516;4.708;2023-09-18T00:06:02;43.47;40.97;47.09;;
69616;Laerm;56822;52.516;4.708;2023-09-18T00:06:13;42.60;40.19;45.40;;
69616;Laerm;56822;52.516;4.708;2023-09-18T00:06:23;42.11;37.24;48.67;;
69616;Laerm;56822;52.516;4.708;2023-09-18T00:06:35;39.86;37.01;43.24;;
69616;Laerm;56822;52.516;4.708;2023-09-18T00:06:45;40.18;36.56;44.21;;
69616;Laerm;56822;52.516;4.708;2023-09-18T00:06:55;38.59;36.03;41.97;;
69616;Laerm;56822;52.516;4.708;2023-09-18T00:07:06;37.42;35.04;39.85;;
69616;Laerm;56822;52.516;4.708;2023-09-18T00:07:16;39.93;36.11;42.49;;
69616;Laerm;56822;52.516;4.708;2023-09-18T00:07:26;37.79;34.51;44.05;;
69616;Laerm;56822;52.516;4.708;2023-09-18T00:07:36;38.81;34.02;42.46;;
69616;Laerm;56822;52.516;4.708;2023-09-18T00:07:47;37.67;29.92;43.23;;
69616;Laerm;56822;52.516;4.708;2023-09-18T00:07:57;32.23;29.93;37.07;;
69616;Laerm;56822;52.516;4.708;2023-09-18T00:08:07;32.23;30.49;35.22;;
69616;Laerm;56822;52.516;4.708;2023-09-18T00:08:18;34.56;32.12;37.72;;
69616;Laerm;56822;52.516;4.708;2023-09-18T00:08:31;39.50;34.81;43.79;;
69616;Laerm;56822;52.516;4.708;2023-09-18T00:08:42;35.38;32.94;38.86;;
69616;Laerm;56822;52.516;4.708;2023-09-18T00:08:52;34.31;31.18;37.52;;
69616;Laerm;56822;52.516;4.708;2023-09-18T00:09:04;32.02;29.60;35.00;;
69616;Laerm;56822;52.516;4.708;2023-09-18T00:09:14;31.31;29.37;33.34;;
69616;Laerm;56822;52.516;4.708;2023-09-18T00:09:24;32.69;29.46;35.27;;
69616;Laerm;56822;52.516;4.708;2023-09-18T00:09:34;36.71;32.89;41.15;;
69616;Laerm;56822;52.516;4.708;2023-09-18T00:09:45;39.36;36.26;41.64;;
69616;Laerm;56822;52.516;4.708;2023-09-18T00:09:55;39.25;35.58;42.35;;
69616;Laerm;56822;52.516;4.708;2023-09-18T00:10:05;39.01;36.12;43.63;;
69616;Laerm;56822;52.516;4.708;2023-09-18T00:10:16;39.05;36.11;41.77;;
69616;Laerm;56822;52.516;4.708;2023-09-18T00:10:26;39.78;35.75;43.32;;
69616;Laerm;56822;52.516;4.708;2023-09-18T00:10:36;39.41;36.42;42.17;;
69616;Laerm;56822;52.516;4.708;2023-09-18T00:10:47;40.42;36.83;43.97;;
69616;Laerm;56822;52.516;4.708;2023-09-18T00:10:59;39.99;35.94;43.60;;
69616;Laerm;56822;52.516;4.708;2023-09-18T00:11:10;39.34;35.99;43.82;;
69616;Laerm;56822;52.516;4.708;2023-09-18T00:11:21;40.93;36.60;47.25;;
69616;Laerm;56822;52.516;4.708;2023-09-18T00:11:32;43.14;40.35;46.93;;
69616;Laerm;56822;52.516;4.708;2023-09-18T00:11:42;42.64;40.01;47.52;;
69616;Laerm;56822;52.516;4.708;2023-09-18T00:11:52;41.58;38.50;45.17;;
69616;Laerm;56822;52.516;4.708;2023-09-18T00:12:03;43.17;38.75;48.54;;
69616;Laerm;56822;52.516;4.708;2023-09-18T00:12:13;45.00;40.92;48.63;;
69616;Laerm;56822;52.516;4.708;2023-09-18T00:12:23;45.87;42.69;49.57;;
69616;Laerm;56822;52.516;4.708;2023-09-18T00:12:34;44.74;41.18;48.03;;
69616;Laerm;56822;52.516;4.708;2023-09-18T00:12:44;43.61;39.44;47.05;;
69616;Laerm;56822;52.516;4.708;2023-09-18T00:12:54;41.18;38.80;45.43;;
69616;Laerm;56822;52.516;4.708;2023-09-18T00:13:05;40.40;36.66;45.15;;
69616;Laerm;56822;52.516;4.708;2023-09-18T00:13:15;40.50;37.14;43.15;;
69616;Laerm;56822;52.516;4.708;2023-09-18T00:13:25;41.50;38.20;44.63;;
69616;Laerm;56822;52.516;4.708;2023-09-18T00:13:36;43.30;39.56;46.78;;
69616;Laerm;56822;52.516;4.708;2023-09-18T00:13:46;44.39;40.93;47.38;;
69616;Laerm;56822;52.516;4.708;2023-09-18T00:13:56;44.15;41.43;46.89;;
69616;Laerm;56822;52.516;4.708;2023-09-18T00:14:07;43.57;40.83;46.09;;
69616;Laerm;56822;52.516;4.708;2023-09-18T00:14:18;41.12;38.04;43.45;;
69616;Laerm;56822;52.516;4.708;2023-09-18T00:14:28;38.36;33.67;44.24;;
69616;Laerm;56822;52.516;4.708;2023-09-18T00:14:38;36.82;33.89;41.37;;
69616;Laerm;56822;52.516;4.708;2023-09-18T00:14:49;38.29;34.70;44.48;;
69616;Laerm;56822;52.516;4.708;2023-09-18T00:14:59;42.57;36.19;46.42;;
69616;Laerm;56822;52.516;4.708;2023-09-18T00:15:10;35.88;31.44;39.23;;
69616;Laerm;56822;52.516;4.708;2023-09-18T00:15:20;33.19;30.22;36.80;;
69616;Laerm;56822;52.516;4.708;2023-09-18T00:15:30;31.70;29.77;34.21;;
69616;Laerm;56822;52.516;4.708;2023-09-18T00:15:41;30.94;29.20;32.46;;
69616;Laerm;56822;52.516;4.708;2023-09-18T00:15:54;32.37;29.83;35.82;;
69616;Laerm;56822;52.516;4.708;2023-09-18T00:16:04;39.14;32.26;43.30;;
69616;Laerm;56822;52.516;4.708;2023-09-18T00:16:15;40.00;36.55;43.04;;
69616;Laerm;56822;52.516;4.708;2023-09-18T00:16:25;36.49;32.55;41.93;;
69616;Laerm;56822;52.516;4.708;2023-09-18T00:16:37;35.58;32.26;40.42;;
69616;Laerm;56822;52.516;4.708;2023-09-18T00:16:47;39.23;34.87;43.66;;
69616;Laerm;56822;52.516;4.708;2023-09-18T00:16:58;39.97;35.74;43.59;;
69616;Laerm;56822;52.516;4.708;2023-09-18T00:17:09;41.54;36.13;46.35;;
69616;Laerm;56822;52.516;4.708;2023-09-18T00:17:20;44.23;40.56;47.47;;
69616;Laerm;56822;52.516;4.708;2023-09-18T00:17:30;45.74;40.96;50.69;;
69616;Laerm;56822;52.516;4.708;2023-09-18T00:17:41;40.46;37.08;43.41;;
69616;Laerm;56822;52.516;4.708;2023-09-18T00:17:51;41.32;37.65;49.13;;
69616;Laerm;56822;52.516;4.708;2023-09-18T00:18:01;40.66;35.83;53.64;;
69616;Laerm;56822;52.516;4.708;2023-09-18T00:18:15;41.80;38.07;53.52;;
69616;Laerm;56822;52.516;4.708;2023-09-18T00:18:26;37.78;34.36;41.47;;
69616;Laerm;56822;52.516;4.708;2023-09-18T00:18:36;38.61;34.73;42.25;;
69616;Laerm;56822;52.516;4.708;2023-09-18T00:18:46;39.18;35.83;43.66;;
69616;Laerm;56822;52.516;4.708;2023-09-18T00:18:56;38.29;33.59;42.81;;
69616;Laerm;56822;52.516;4.708;2023-09-18T00:19:07;36.50;33.51;40.09;;
69616;Laerm;56822;52.516;4.708;2023-09-18T00:19:23;39.62;33.58;46.36;;
69616;Laerm;56822;52.516;4.708;2023-09-18T00:19:34;34.77;32.91;36.50;;
69616;Laerm;56822;52.516;4.708;2023-09-18T00:19:44;36.35;33.73;40.29;;
69616;Laerm;56822;52.516;4.708;2023-09-18T00:19:55;36.91;34.12;38.97;;
69616;Laerm;56822;52.516;4.708;2023-09-18T00:20:05;39.54;34.90;43.41;;
69616;Laerm;56822;52.516;4.708;2023-09-18T00:20:16;44.49;39.85;48.54;;
69616;Laerm;56822;52.516;4.708;2023-09-18T00:20:27;42.06;34.89;47.65;;
69616;Laerm;56822;52.516;4.708;2023-09-18T00:20:38;42.95;38.42;47.85;;
69616;Laerm;56822;52.516;4.708;2023-09-18T00:20:48;42.52;37.96;52.18;;
69616;Laerm;56822;52.516;4.708;2023-09-18T00:20:59;37.59;33.29;41.20;;
69616;Laerm;56822;52.516;4.708;2023-09-18T00:21:10;36.94;32.93;40.15;;
69616;Laerm;56822;52.516;4.708;2023-09-18T00:21:20;39.66;36.45;42.97;;
69616;Laerm;56822;52.516;4.708;2023-09-18T00:21:31;44.00;40.87;48.29;;
69616;Laerm;56822;52.516;4.708;2023-09-18T00:21:41;42.21;38.40;45.97;;
69616;Laerm;56822;52.516;4.708;2023-09-18T00:21:51;41.88;38.06;45.41;;
69616;Laerm;56822;52.516;4.708;2023-09-18T00:22:02;43.64;38.89;51.70;;
69616;Laerm;56822;52.516;4.708;2023-09-18T00:22:13;41.52;36.70;47.31;;
69616;Laerm;56822;52.516;4.708;2023-09-18T00:22:24;40.41;36.31;44.73;;
69616;Laerm;56822;52.516;4.708;2023-09-18T00:22:35;41.92;38.80;45.35;;
69616;Laerm;56822;52.516;4.708;2023-09-18T00:22:45;37.45;31.85;44.41;;
69616;Laerm;56822;52.516;4.708;2023-09-18T00:22:56;36.35;33.17;39.77;;
69616;Laerm;56822;52.516;4.708;2023-09-18T00:23:06;40.34;36.68;44.28;;
69616;Laerm;56822;52.516;4.708;2023-09-18T00:23:16;41.34;36.08;47.65;;
69616;Laerm;56822;52.516;4.708;2023-09-18T00:23:26;39.49;34.33;46.82;;
69616;Laerm;56822;52.516;4.708;2023-09-18T00:23:37;43.49;37.90;50.79;;
69616;Laerm;56822;52.516;4.708;2023-09-18T00:23:47;41.70;38.00;46.39;;
69616;Laerm;56822;52.516;4.708;2023-09-18T00:23:58;43.77;35.74;48.56;;
69616;Laerm;56822;52.516;4.708;2023-09-18T00:24:08;37.97;34.57;40.84;;
69616;Laerm;56822;52.516;4.708;2023-09-18T00:24:18;38.18;33.99;42.45;;
69616;Laerm;56822;52.516;4.708;2023-09-18T00:24:29;36.35;33.53;39.53;;
69616;Laerm;56822;52.516;4.708;2023-09-18T00:24:39;37.16;34.51;40.29;;
69616;Laerm;56822;52.516;4.708;2023-09-18T00:24:49;35.63;33.54;38.22;;
69616;Laerm;56822;52.516;4.708;2023-09-18T00:25:00;36.26;33.64;38.82;;
69616;Laerm;56822;52.516;4.708;2023-09-18T00:25:11;37.65;34.90;39.84;;
69616;Laerm;56822;52.516;4.708;2023-09-18T00:25:22;39.82;36.80;44.74;;
69616;Laerm;56822;52.516;4.708;2023-09-18T00:25:32;42.10;35.59;49.46;;
69616;Laerm;56822;52.516;4.708;2023-09-18T00:25:42;38.45;35.69;40.97;;
69616;Laerm;56822;52.516;4.708;2023-09-18T00:25:53;40.32;35.81;44.93;;
69616;Laerm;56822;52.516;4.708;2023-09-18T00:26:03;45.69;40.85;50.49;;
69616;Laerm;56822;52.516;4.708;2023-09-18T00:26:13;48.13;39.86;52.45;;
69616;Laerm;56822;52.516;4.708;2023-09-18T00:26:24;40.57;37.45;43.20;;
69616;Laerm;56822;52.516;4.708;2023-09-18T00:26:35;41.68;37.03;47.38;;
69616;Laerm;56822;52.516;4.708;2023-09-18T00:26:45;44.71;38.99;49.75;;
69616;Laerm;56822;52.516;4.708;2023-09-18T00:26:58;40.00;34.32;45.59;;
69616;Laerm;56822;52.516;4.708;2023-09-18T00:27:08;41.30;34.39;47.56;;
69616;Laerm;56822;52.516;4.708;2023-09-18T00:27:18;41.48;36.05;46.86;;
69616;Laerm;56822;52.516;4.708;2023-09-18T00:27:29;38.12;33.75;41.37;;
69616;Laerm;56822;52.516;4.708;2023-09-18T00:27:40;38.58;34.76;43.80;;
69616;Laerm;56822;52.516;4.708;2023-09-18T00:27:50;38.37;35.72;44.52;;
69616;Laerm;56822;52.516;4.708;2023-09-18T00:28:02;39.74;36.88;43.43;;
69616;Laerm;56822;52.516;4.708;2023-09-18T00:28:12;40.43;36.26;43.67;;
69616;Laerm;56822;52.516;4.708;2023-09-18T00:28:22;39.17;33.96;47.70;;
69616;Laerm;56822;52.516;4.708;2023-09-18T00:28:33;39.21;34.41;44.55;;
69616;Laerm;56822;52.516;4.708;2023-09-18T00:28:43;44.92;38.01;49.70;;
69616;Laerm;56822;52.516;4.708;2023-09-18T00:28:53;39.43;36.20;42.79;;
69616;Laerm;56822;52.516;4.708;2023-09-18T00:29:03;37.98;32.87;43.54;;
69616;Laerm;56822;52.516;4.708;2023-09-18T00:29:14;37.59;32.55;44.59;;
69616;Laerm;56822;52.516;4.708;2023-09-18T00:29:24;38.80;33.67;44.61;;
69616;Laerm;56822;52.516;4.708;2023-09-18T00:29:34;37.96;33.64;42.53;;
69616;Laerm;56822;52.516;4.708;2023-09-18T00:29:45;44.60;37.34;50.63;;
69616;Laerm;56822;52.516;4.708;2023-09-18T00:29:55;39.57;35.08;42.93;;
69616;Laerm;56822;52.516;4.708;2023-09-18T00:30:06;42.20;35.69;47.43;;
69616;Laerm;56822;52.516;4.708;2023-09-18T00:30:16;41.88;36.91;47.97;;
69616;Laerm;56822;52.516;4.708;2023-09-18T00:30:27;40.66;37.82;44.24;;
69616;Laerm;56822;52.516;4.708;2023-09-18T00:30:37;42.62;38.42;50.28;;
69616;Laerm;56822;52.516;4.708;2023-09-18T00:30:49;39.79;36.83;44.25;;
69616;Laerm;56822;52.516;4.708;2023-09-18T00:30:59;38.01;33.83;44.26;;
69616;Laerm;56822;52.516;4.708;2023-09-18T00:31:10;35.09;32.61;39.62;;
69616;Laerm;56822;52.516;4.708;2023-09-18T00:31:20;35.40;33.45;37.06;;
69616;Laerm;56822;52.516;4.708;2023-09-18T00:31:30;36.32;33.55;40.78;;
69616;Laerm;56822;52.516;4.708;2023-09-18T00:31:41;37.15;34.66;41.05;;
69616;Laerm;56822;52.516;4.708;2023-09-18T00:31:51;39.20;35.25;45.44;;
69616;Laerm;56822;52.516;4.708;2023-09-18T00:32:01;39.78;35.78;42.92;;
69616;Laerm;56822;52.516;4.708;2023-09-18T00:32:11;43.34;38.10;46.77;;
69616;Laerm;56822;52.516;4.708;2023-09-18T00:32:22;42.29;37.34;46.67;;
69616;Laerm;56822;52.516;4.708;2023-09-18T00:32:32;40.05;36.50;44.66;;
69616;Laerm;56822;52.516;4.708;2023-09-18T00:32:43;38.93;36.15;42.26;;
69616;Laerm;56822;52.516;4.708;2023-09-18T00:32:53;40.75;37.32;44.13;;
69616;Laerm;56822;52.516;4.708;2023-09-18T00:33:03;38.79;36.64;42.84;;
69616;Laerm;56822;52.516;4.708;2023-09-18T00:33:14;42.66;38.77;45.57;;
69616;Laerm;56822;52.516;4.708;2023-09-18T00:33:24;41.29;37.18;44.95;;
69616;Laerm;56822;52.516;4.708;2023-09-18T00:33:34;39.23;35.19;43.34;;
69616;Laerm;56822;52.516;4.708;2023-09-18T00:33:44;46.38;37.53;53.00;;
69616;Laerm;56822;52.516;4.708;2023-09-18T00:33:55;38.05;33.83;43.33;;
69616;Laerm;56822;52.516;4.708;2023-09-18T00:34:05;34.55;31.98;43.52;;
69616;Laerm;56822;52.516;4.708;2023-09-18T00:34:15;38.38;35.09;43.96;;
69616;Laerm;56822;52.516;4.708;2023-09-18T00:34:26;41.68;35.72;46.33;;
69616;Laerm;56822;52.516;4.708;2023-09-18T00:34:36;44.94;38.70;51.60;;
69616;Laerm;56822;52.516;4.708;2023-09-18T00:34:46;41.86;38.16;45.95;;
69616;Laerm;56822;52.516;4.708;2023-09-18T00:34:56;40.03;36.33;43.04;;
69616;Laerm;56822;52.516;4.708;2023-09-18T00:35:07;37.71;32.42;43.51;;
69616;Laerm;56822;52.516;4.708;2023-09-18T00:35:17;31.71;29.55;35.40;;
69616;Laerm;56822;52.516;4.708;2023-09-18T00:35:27;31.32;29.57;35.28;;
69616;Laerm;56822;52.516;4.708;2023-09-18T00:35:38;34.02;30.89;40.35;;
69616;Laerm;56822;52.516;4.708;2023-09-18T00:35:48;41.29;36.07;47.51;;
69616;Laerm;56822;52.516;4.708;2023-09-18T00:35:59;38.25;34.79;41.26;;
69616;Laerm;56822;52.516;4.708;2023-09-18T00:36:09;39.18;35.88;43.58;;
69616;Laerm;56822;52.516;4.708;2023-09-18T00:36:20;42.63;38.34;48.98;;
69616;Laerm;56822;52.516;4.708;2023-09-18T00:36:30;43.53;39.45;52.27;;
69616;Laerm;56822;52.516;4.708;2023-09-18T00:36:41;44.26;37.56;53.27;;
69616;Laerm;56822;52.516;4.708;2023-09-18T00:36:51;40.18;36.83;43.86;;
69616;Laerm;56822;52.516;4.708;2023-09-18T00:37:01;37.20;34.09;41.76;;
69616;Laerm;56822;52.516;4.708;2023-09-18T00:37:12;41.65;35.50;48.43;;
69616;Laerm;56822;52.516;4.708;2023-09-18T00:37:22;35.00;31.29;41.26;;
69616;Laerm;56822;52.516;4.708;2023-09-18T00:37:32;36.85;31.81;42.31;;
69616;Laerm;56822;52.516;4.708;2023-09-18T00:37:43;40.20;36.25;44.14;;
69616;Laerm;56822;52.516;4.708;2023-09-18T00:37:53;39.93;37.23;42.64;;
69616;Laerm;56822;52.516;4.708;2023-09-18T00:38:03;38.43;35.16;42.09;;
69616;Laerm;56822;52.516;4.708;2023-09-18T00:38:14;42.70;35.68;57.06;;
69616;Laerm;56822;52.516;4.708;2023-09-18T00:38:24;41.35;38.11;45.36;;
69616;Laerm;56822;52.516;4.708;2023-09-18T00:38:35;42.72;36.95;55.35;;
69616;Laerm;56822;52.516;4.708;2023-09-18T00:38:45;48.53;35.87;66.08;;
69616;Laerm;56822;52.516;4.708;2023-09-18T00:38:57;50.67;36.52;64.40;;
69616;Laerm;56822;52.516;4.708;2023-09-18T00:39:07;43.26;34.35;61.74;;
69616;Laerm;56822;52.516;4.708;2023-09-18T00:39:18;44.44;35.38;56.17;;
69616;Laerm;56822;52.516;4.708;2023-09-18T00:39:28;38.21;33.77;51.63;;
69616;Laerm;56822;52.516;4.708;2023-09-18T00:39:38;39.11;34.19;50.93;;
69616;Laerm;56822;52.516;4.708;2023-09-18T00:39:49;43.94;39.12;50.27;;
69616;Laerm;56822;52.516;4.708;2023-09-18T00:40:00;43.56;37.49;49.86;;
69616;Laerm;56822;52.516;4.708;2023-09-18T00:40:11;38.70;32.10;44.49;;
69616;Laerm;56822;52.516;4.708;2023-09-18T00:40:21;34.65;31.22;39.92;;
69616;Laerm;56822;52.516;4.708;2023-09-18T00:40:32;32.02;29.64;47.58;;
69616;Laerm;56822;52.516;4.708;2023-09-18T00:40:42;30.88;29.13;32.49;;
69616;Laerm;56822;52.516;4.708;2023-09-18T00:40:52;31.51;29.28;40.20;;
69616;Laerm;56822;52.516;4.708;2023-09-18T00:41:02;37.11;31.71;41.86;;
69616;Laerm;56822;52.516;4.708;2023-09-18T00:41:13;42.44;35.45;47.28;;
69616;Laerm;56822;52.516;4.708;2023-09-18T00:41:23;44.04;39.56;50.91;;
69616;Laerm;56822;52.516;4.708;2023-09-18T00:41:33;44.75;40.39;52.12;;
69616;Laerm;56822;52.516;4.708;2023-09-18T00:41:44;41.34;37.43;45.00;;
69616;Laerm;56822;52.516;4.708;2023-09-18T00:41:59;44.59;39.32;52.16;;
69616;Laerm;56822;52.516;4.708;2023-09-18T00:42:09;44.74;38.07;53.54;;
69616;Laerm;56822;52.516;4.708;2023-09-18T00:42:24;41.66;36.31;46.77;;
69616;Laerm;56822;52.516;4.708;2023-09-18T00:42:34;42.73;39.73;45.77;;
69616;Laerm;56822;52.516;4.708;2023-09-18T00:42:44;43.04;37.46;50.25;;
69616;Laerm;56822;52.516;4.708;2023-09-18T00:42:55;38.00;34.06;42.91;;
69616;Laerm;56822;52.516;4.708;2023-09-18T00:43:05;42.93;37.75;48.83;;
69616;Laerm;56822;52.516;4.708;2023-09-18T00:43:16;43.85;38.29;52.95;;
69616;Laerm;56822;52.516;4.708;2023-09-18T00:43:27;46.04;37.79;54.12;;
69616;Laerm;56822;52.516;4.708;2023-09-18T00:43:38;38.10;35.70;40.72;;
69616;Laerm;56822;52.516;4.708;2023-09-18T00:43:48;38.91;35.48;43.15;;
69616;Laerm;56822;52.516;4.708;2023-09-18T00:43:58;40.50;36.84;43.85;;
69616;Laerm;56822;52.516;4.708;2023-09-18T00:44:09;43.67;40.62;46.35;;
69616;Laerm;56822;52.516;4.708;2023-09-18T00:44:22;43.81;39.02;48.22;;
69616;Laerm;56822;52.516;4.708;2023-09-18T00:44:33;47.07;39.53;54.98;;
69616;Laerm;56822;52.516;4.708;2023-09-18T00:44:45;45.19;39.98;52.51;;
69616;Laerm;56822;52.516;4.708;2023-09-18T00:44:55;37.93;33.63;42.54;;
69616;Laerm;56822;52.516;4.708;2023-09-18T00:45:05;41.61;34.21;50.57;;
69616;Laerm;56822;52.516;4.708;2023-09-18T00:45:16;43.97;38.55;49.98;;
69616;Laerm;56822;52.516;4.708;2023-09-18T00:45:26;38.38;35.79;40.69;;
69616;Laerm;56822;52.516;4.708;2023-09-18T00:45:40;36.73;34.12;40.25;;
69616;Laerm;56822;52.516;4.708;2023-09-18T00:45:51;36.61;32.72;41.65;;
69616;Laerm;56822;52.516;4.708;2023-09-18T00:46:02;33.98;31.65;37.26;;
69616;Laerm;56822;52.516;4.708;2023-09-18T00:46:12;35.64;32.73;40.14;;
69616;Laerm;56822;52.516;4.708;2023-09-18T00:46:23;41.46;34.83;53.09;;
69616;Laerm;56822;52.516;4.708;2023-09-18T00:46:33;38.93;34.89;44.23;;
69616;Laerm;56822;52.516;4.708;2023-09-18T00:46:45;39.59;35.70;43.83;;
69616;Laerm;56822;52.516;4.708;2023-09-18T00:46:55;41.43;37.15;44.64;;
69616;Laerm;56822;52.516;4.708;2023-09-18T00:47:07;40.87;37.01;45.07;;
69616;Laerm;56822;52.516;4.708;2023-09-18T00:47:17;42.19;39.38;46.86;;
69616;Laerm;56822;52.516;4.708;2023-09-18T00:47:28;41.59;38.19;44.78;;
69616;Laerm;56822;52.516;4.708;2023-09-18T00:47:38;40.63;37.32;43.41;;
69616;Laerm;56822;52.516;4.708;2023-09-18T00:47:49;45.24;39.71;49.38;;
69616;Laerm;56822;52.516;4.708;2023-09-18T00:48:00;41.89;38.14;46.83;;
69616;Laerm;56822;52.516;4.708;2023-09-18T00:48:11;40.25;36.20;44.77;;
69616;Laerm;56822;52.516;4.708;2023-09-18T00:48:22;39.51;36.28;43.43;;
69616;Laerm;56822;52.516;4.708;2023-09-18T00:48:32;41.32;37.93;44.21;;
69616;Laerm;56822;52.516;4.708;2023-09-18T00:48:42;41.74;37.00;48.74;;
69616;Laerm;56822;52.516;4.708;2023-09-18T00:48:53;40.62;36.61;44.33;;
69616;Laerm;56822;52.516;4.708;2023-09-18T00:49:03;36.37;32.77;41.88;;
69616;Laerm;56822;52.516;4.708;2023-09-18T00:49:14;35.44;33.19;38.35;;
69616;Laerm;56822;52.516;4.708;2023-09-18T00:49:25;38.12;33.51;41.08;;
69616;Laerm;56822;52.516;4.708;2023-09-18T00:49:36;38.85;35.52;43.15;;
69616;Laerm;56822;52.516;4.708;2023-09-18T00:49:48;37.96;34.35;40.96;;
69616;Laerm;56822;52.516;4.708;2023-09-18T00:50:00;36.63;34.05;39.23;;
69616;Laerm;56822;52.516;4.708;2023-09-18T00:50:11;35.14;32.22;37.93;;
69616;Laerm;56822;52.516;4.708;2023-09-18T00:50:22;36.56;32.07;44.58;;
69616;Laerm;56822;52.516;4.708;2023-09-18T00:50:32;37.46;33.47;43.69;;
69616;Laerm;56822;52.516;4.708;2023-09-18T00:50:46;40.51;34.00;44.64;;
69616;Laerm;56822;52.516;4.708;2023-09-18T00:50:56;42.75;39.47;46.47;;
69616;Laerm;56822;52.516;4.708;2023-09-18T00:51:08;40.26;36.89;43.67;;
69616;Laerm;56822;52.516;4.708;2023-09-18T00:51:18;37.97;33.40;41.64;;
69616;Laerm;56822;52.516;4.708;2023-09-18T00:51:28;35.64;31.62;38.85;;
69616;Laerm;56822;52.516;4.708;2023-09-18T00:51:39;37.67;33.30;43.07;;
69616;Laerm;56822;52.516;4.708;2023-09-18T00:51:49;40.74;35.42;46.61;;
69616;Laerm;56822;52.516;4.708;2023-09-18T00:52:01;41.80;36.24;47.47;;
69616;Laerm;56822;52.516;4.708;2023-09-18T00:52:11;41.77;35.91;48.10;;
69616;Laerm;56822;52.516;4.708;2023-09-18T00:52:22;39.86;34.11;46.92;;
69616;Laerm;56822;52.516;4.708;2023-09-18T00:52:33;44.36;39.08;50.14;;
69616;Laerm;56822;52.516;4.708;2023-09-18T00:52:43;39.15;33.86;47.04;;
69616;Laerm;56822;52.516;4.708;2023-09-18T00:52:54;35.57;33.27;38.59;;
69616;Laerm;56822;52.516;4.708;2023-09-18T00:53:04;36.84;33.68;41.62;;
69616;Laerm;56822;52.516;4.708;2023-09-18T00:53:17;38.45;33.74;45.30;;
69616;Laerm;56822;52.516;4.708;2023-09-18T00:53:30;35.78;31.95;43.50;;
69616;Laerm;56822;52.516;4.708;2023-09-18T00:53:44;33.48;31.00;36.92;;
69616;Laerm;56822;52.516;4.708;2023-09-18T00:53:55;37.74;32.63;41.35;;
69616;Laerm;56822;52.516;4.708;2023-09-18T00:54:05;40.13;35.35;44.13;;
69616;Laerm;56822;52.516;4.708;2023-09-18T00:54:16;39.79;35.02;49.67;;
69616;Laerm;56822;52.516;4.708;2023-09-18T00:54:28;36.25;32.81;43.65;;
69616;Laerm;56822;52.516;4.708;2023-09-18T00:54:39;40.74;35.03;48.47;;
69616;Laerm;56822;52.516;4.708;2023-09-18T00:54:50;42.41;35.33;51.59;;
69616;Laerm;56822;52.516;4.708;2023-09-18T00:55:01;36.81;32.07;44.47;;
69616;Laerm;56822;52.516;4.708;2023-09-18T00:55:12;35.07;32.61;37.61;;
69616;Laerm;56822;52.516;4.708;2023-09-18T00:55:23;33.96;30.44;42.59;;
69616;Laerm;56822;52.516;4.708;2023-09-18T00:55:33;31.78;30.18;33.81;;
69616;Laerm;56822;52.516;4.708;2023-09-18T00:55:46;32.20;30.11;35.40;;
69616;Laerm;56822;52.516;4.708;2023-09-18T00:55:57;34.35;32.08;37.63;;
69616;Laerm;56822;52.516;4.708;2023-09-18T00:56:07;34.08;31.25;37.96;;
69616;Laerm;56822;52.516;4.708;2023-09-18T00:56:18;35.51;31.99;40.07;;
69616;Laerm;56822;52.516;4.708;2023-09-18T00:56:30;42.21;37.31;48.01;;
69616;Laerm;56822;52.516;4.708;2023-09-18T00:56:40;40.61;36.75;45.28;;
69616;Laerm;56822;52.516;4.708;2023-09-18T00:56:50;42.98;38.44;48.80;;
69616;Laerm;56822;52.516;4.708;2023-09-18T00:57:04;40.28;36.84;43.85;;
69616;Laerm;56822;52.516;4.708;2023-09-18T00:57:14;38.09;35.00;42.15;;
69616;Laerm;56822;52.516;4.708;2023-09-18T00:57:25;40.09;36.08;45.01;;
69616;Laerm;56822;52.516;4.708;2023-09-18T00:57:35;43.85;39.25;49.17;;
69616;Laerm;56822;52.516;4.708;2023-09-18T00:57:45;41.49;36.37;45.31;;
69616;Laerm;56822;52.516;4.708;2023-09-18T00:57:56;36.54;33.59;40.53;;
69616;Laerm;56822;52.516;4.708;2023-09-18T00:58:06;33.88;32.45;36.23;;
69616;Laerm;56822;52.516;4.708;2023-09-18T00:58:17;37.10;32.57;42.86;;
69616;Laerm;56822;52.516;4.708;2023-09-18T00:58:27;40.13;35.21;44.72;;
69616;Laerm;56822;52.516;4.708;2023-09-18T00:58:38;37.27;31.51;42.75;;
69616;Laerm;56822;52.516;4.708;2023-09-18T00:58:48;36.81;31.56;41.89;;
69616;Laerm;56822;52.516;4.708;2023-09-18T00:58:59;38.30;33.91;44.46;;
69616;Laerm;56822;52.516;4.708;2023-09-18T00:59:10;34.98;32.42;38.05;;
69616;Laerm;56822;52.516;4.708;2023-09-18T00:59:20;35.65;32.87;39.43;;
69616;Laerm;56822;52.516;4.708;2023-09-18T00:59:31;38.91;34.77;45.60;;
69616;Laerm;56822;52.516;4.708;2023-09-18T00:59:42;39.96;35.52;43.76;;